Time;durP1;ratioP1;P1;durP2;ratioP2;P2;SDS_P1;SDS_P2;PMS_P1;PMS_P2;Temp;Humidity;BMP_temperature;BMP_pressure;BME280_temperature;BME280_humidity;BME280_pressure;Samples;Min_cycle;Max_cycle;Signal;HPM_P1;HPM_P2
2021/01/19 00:00:46;;;;;;;3.80;3.13;;;16.20;38.50;;;;;;6137490;23;20129;-81
2021/01/19 00:03:15;;;;;;;4.43;3.47;;;16.30;38.60;;;;;;6138099;23;20606;-83
2021/01/19 00:05:44;;;;;;;3.58;2.97;;;16.20;38.50;;;;;;6087751;23;20488;-81
2021/01/19 00:08:11;;;;;;;3.70;3.03;;;16.20;38.60;;;;;;6137992;23;20142;-81
2021/01/19 00:10:37;;;;;;;3.58;3.08;;;16.20;38.60;;;;;;6138612;23;20152;-81
2021/01/19 00:13:04;;;;;;;4.15;3.20;;;16.20;38.60;;;;;;6139437;23;20144;-81
2021/01/19 00:15:35;;;;;;;4.80;3.53;;;16.20;38.50;;;;;;6137731;23;20137;-81
2021/01/19 00:18:02;;;;;;;4.35;3.38;;;16.20;38.60;;;;;;6137981;23;20183;-81
2021/01/19 00:20:28;;;;;;;3.88;3.00;;;16.20;38.50;;;;;;6112486;23;20211;-81
2021/01/19 00:22:54;;;;;;;3.53;3.08;;;16.30;38.60;;;;;;6138750;23;20141;-81
2021/01/19 00:25:20;;;;;;;3.75;3.33;;;16.20;38.60;;;;;;6112449;23;20136;-81
2021/01/19 00:27:48;;;;;;;4.32;3.45;;;16.20;38.60;;;;;;6138593;23;20583;-81
2021/01/19 00:30:23;;;;;;;3.70;3.13;;;16.20;38.70;;;;;;6138710;23;20136;-82
2021/01/19 00:32:50;;;;;;;4.25;3.25;;;16.20;38.70;;;;;;6112918;23;20476;-81
2021/01/19 00:35:24;;;;;;;4.25;3.22;;;16.20;38.80;;;;;;6088193;23;20147;-81
2021/01/19 00:37:50;;;;;;;4.10;3.33;;;16.20;38.70;;;;;;6138044;23;20205;-81
2021/01/19 00:40:16;;;;;;;4.05;3.25;;;16.20;38.60;;;;;;6138924;23;20200;-81
2021/01/19 00:42:41;;;;;;;4.03;3.13;;;16.30;38.80;;;;;;6138657;23;20140;-81
2021/01/19 00:45:08;;;;;;;4.40;3.42;;;16.20;38.60;;;;;;6138250;23;20469;-81
2021/01/19 00:47:34;;;;;;;4.10;3.35;;;16.20;38.70;;;;;;6138298;23;20151;-81
2021/01/19 00:50:00;;;;;;;4.20;3.25;;;16.20;38.70;;;;;;6138569;23;20211;-81
2021/01/19 00:52:26;;;;;;;3.95;3.20;;;16.20;38.80;;;;;;6113433;23;20136;-81
2021/01/19 00:54:53;;;;;;;4.63;3.45;;;16.20;38.80;;;;;;6138019;23;20225;-81
2021/01/19 00:57:19;;;;;;;4.82;3.03;;;16.20;38.80;;;;;;6088537;23;20168;-81
2021/01/19 00:59:47;;;;;;;3.53;3.20;;;16.20;38.80;;;;;;6111273;23;20196;-81
2021/01/19 01:02:13;;;;;;;4.10;3.33;;;16.20;38.90;;;;;;6088513;23;20194;-81
2021/01/19 01:04:39;;;;;;;4.00;3.13;;;16.20;38.80;;;;;;6112853;23;20168;-81
2021/01/19 01:07:06;;;;;;;4.05;3.22;;;16.20;38.80;;;;;;6138188;23;20136;-81
2021/01/19 01:09:37;;;;;;;4.28;3.40;;;16.20;38.90;;;;;;6112862;23;20145;-81
2021/01/19 01:12:06;;;;;;;3.72;3.08;;;16.20;38.90;;;;;;6113327;23;20141;-80
2021/01/19 01:14:33;;;;;;;3.83;3.20;;;16.20;38.90;;;;;;6088342;23;20358;-80
2021/01/19 01:17:00;;;;;;;4.20;3.60;;;16.20;38.80;;;;;;6138170;23;20132;-80
2021/01/19 01:19:26;;;;;;;4.75;3.47;;;16.20;38.80;;;;;;6088427;23;20204;-80
2021/01/19 01:21:52;;;;;;;4.10;3.60;;;16.20;38.80;;;;;;6112697;23;20140;-80
2021/01/19 01:24:19;;;;;;;4.68;3.42;;;16.20;38.90;;;;;;6089092;23;20497;-81
2021/01/19 01:26:45;;;;;;;3.90;3.15;;;16.20;38.90;;;;;;6087982;23;20572;-81
2021/01/19 01:29:12;;;;;;;4.72;3.80;;;16.20;39.00;;;;;;6112380;23;20220;-80
2021/01/19 01:31:38;;;;;;;4.32;3.38;;;16.20;38.90;;;;;;6088430;23;20136;-80
2021/01/19 01:34:08;;;;;;;3.72;2.95;;;16.20;38.90;;;;;;6088154;23;20143;-81
2021/01/19 01:36:41;;;;;;;4.78;3.20;;;16.20;38.90;;;;;;6138505;23;20136;-81
2021/01/19 01:39:07;;;;;;;4.28;3.33;;;16.20;39.00;;;;;;6137679;23;20267;-81
2021/01/19 01:41:34;;;;;;;4.47;3.33;;;16.20;39.00;;;;;;6111977;23;20132;-81
2021/01/19 01:44:02;;;;;;;4.05;3.25;;;16.20;39.00;;;;;;6111738;23;20147;-80
2021/01/19 01:46:31;;;;;;;4.13;3.28;;;16.20;39.00;;;;;;6088606;23;20227;-81
2021/01/19 01:48:58;;;;;;;4.05;3.05;;;16.10;39.00;;;;;;6112380;23;20209;-81
2021/01/19 01:51:24;;;;;;;4.10;3.22;;;16.10;39.00;;;;;;6111694;23;20152;-81
2021/01/19 01:53:52;;;;;;;4.15;3.58;;;16.20;39.10;;;;;;6087289;23;20144;-81
2021/01/19 01:56:18;;;;;;;3.92;3.10;;;16.10;39.00;;;;;;6112224;23;20133;-81
2021/01/19 01:58:44;;;;;;;4.10;3.15;;;16.10;39.00;;;;;;6087415;23;20239;-82
2021/01/19 02:01:09;;;;;;;3.50;3.00;;;16.10;39.10;;;;;;6064023;23;20645;-81
2021/01/19 02:03:35;;;;;;;3.95;3.17;;;16.20;39.00;;;;;;6111495;23;20140;-80
2021/01/19 02:06:01;;;;;;;4.40;3.40;;;16.20;39.00;;;;;;6111527;23;20143;-81
2021/01/19 02:08:42;;;;;;;4.80;3.47;;;16.20;39.60;;;;;;6063975;23;20140;-81
2021/01/19 02:11:17;;;;;;;4.40;3.40;;;16.10;39.10;;;;;;6137280;23;20136;-81
2021/01/19 02:14:13;;;;;;;4.55;3.47;;;16.20;39.10;;;;;;6112186;23;20202;-83
2021/01/19 02:16:45;;;;;;;3.90;3.30;;;16.10;39.10;;;;;;6138451;23;20136;-81
2021/01/19 02:19:31;;;;;;;4.32;3.22;;;16.20;39.10;;;;;;6087403;23;20175;-80
2021/01/19 02:22:20;;;;;;;3.78;3.03;;;16.10;39.10;;;;;;6137740;23;20132;-81
2021/01/19 02:25:04;;;;;;;4.47;3.38;;;16.10;39.20;;;;;;6020188;23;20191;-81
2021/01/19 02:28:00;;;;;;;4.30;3.25;;;16.00;39.30;;;;;;5996470;23;20158;-81
2021/01/19 02:30:59;;;;;;;3.90;3.15;;;16.00;39.20;;;;;;6022113;23;20154;-81
2021/01/19 02:33:33;;;;;;;3.88;3.20;;;16.10;39.20;;;;;;6021179;23;20143;-82
2021/01/19 02:36:08;;;;;;;3.72;3.30;;;16.10;39.20;;;;;;6021838;23;20161;-80
2021/01/19 02:38:40;;;;;;;4.53;3.47;;;16.10;39.20;;;;;;6000382;23;20234;-80
2021/01/19 02:41:07;;;;;;;4.97;3.45;;;16.10;39.20;;;;;;5975039;23;20158;-81
2021/01/19 02:43:33;;;;;;;3.67;3.10;;;16.10;39.20;;;;;;5998911;23;20218;-81
2021/01/19 02:46:00;;;;;;;4.53;3.72;;;16.10;39.20;;;;;;5974687;23;20198;-80
2021/01/19 02:48:26;;;;;;;4.47;3.35;;;16.10;39.30;;;;;;5998639;23;20155;-81
2021/01/19 02:50:52;;;;;;;3.95;3.10;;;16.10;39.20;;;;;;5997719;23;20206;-81
2021/01/19 02:53:20;;;;;;;4.50;3.50;;;16.10;39.20;;;;;;5998265;23;20171;-80
2021/01/19 02:55:46;;;;;;;4.22;3.42;;;16.10;39.20;;;;;;5951754;23;20154;-81
2021/01/19 02:58:18;;;;;;;3.80;3.13;;;16.10;39.20;;;;;;5951485;23;20246;-81
2021/01/19 03:01:02;;;;;;;4.07;3.35;;;16.10;39.30;;;;;;6003694;23;20147;-81
2021/01/19 03:03:30;;;;;;;4.35;3.10;;;16.10;39.30;;;;;;6108347;23;20133;-80
2021/01/19 03:05:57;;;;;;;4.15;3.15;;;16.10;39.20;;;;;;6085428;23;20224;-81
2021/01/19 03:08:25;;;;;;;3.55;3.10;;;16.10;39.20;;;;;;6085391;23;20172;-81
2021/01/19 03:11:02;;;;;;;4.15;3.20;;;16.10;39.30;;;;;;6108807;23;20137;-81
2021/01/19 03:13:36;;;;;;;3.65;2.97;;;16.10;39.30;;;;;;6108895;23;20141;-81
2021/01/19 03:16:25;;;;;;;3.88;3.22;;;16.10;39.30;;;;;;6109339;23;20509;-81
2021/01/19 03:18:52;;;;;;;4.18;3.08;;;16.10;39.20;;;;;;6106919;23;20175;-80
2021/01/19 03:21:18;;;;;;;4.00;3.25;;;16.10;39.20;;;;;;6109942;23;20141;-81
2021/01/19 03:23:43;;;;;;;3.95;3.33;;;16.10;39.30;;;;;;6109711;23;20161;-81
2021/01/19 03:26:09;;;;;;;4.78;3.63;;;16.10;39.30;;;;;;6108906;23;20473;-81
2021/01/19 03:28:35;;;;;;;4.40;3.30;;;16.10;39.30;;;;;;6109417;23;20272;-80
2021/01/19 03:31:01;;;;;;;3.55;2.80;;;16.10;39.40;;;;;;6084263;23;20171;-81
2021/01/19 03:33:28;;;;;;;4.85;3.10;;;16.00;39.40;;;;;;6107570;23;20137;-80
2021/01/19 03:35:56;;;;;;;3.90;3.25;;;16.10;39.40;;;;;;6084608;23;20220;-81
2021/01/19 03:38:22;;;;;;;4.30;3.25;;;16.00;39.40;;;;;;6120555;23;20195;-80
2021/01/19 03:40:47;;;;;;;3.88;3.00;;;16.10;39.50;;;;;;6114454;23;20227;-81
2021/01/19 03:43:14;;;;;;;4.75;3.38;;;16.00;39.40;;;;;;6065889;23;20148;-81
2021/01/19 03:45:40;;;;;;;4.25;3.50;;;16.00;39.40;;;;;;6114103;23;20139;-81
2021/01/19 03:48:07;;;;;;;3.90;3.03;;;16.00;39.40;;;;;;6139409;23;20564;-81
2021/01/19 03:50:34;;;;;;;4.55;3.40;;;16.10;39.30;;;;;;6139463;23;20147;-81
2021/01/19 03:53:01;;;;;;;4.28;3.03;;;16.20;39.20;;;;;;6113214;23;20146;-81
2021/01/19 03:55:29;;;;;;;3.60;3.20;;;16.20;39.00;;;;;;6113922;23;20220;-81
2021/01/19 03:57:55;;;;;;;3.92;3.13;;;16.20;39.00;;;;;;6065746;23;20516;-80
2021/01/19 04:00:22;;;;;;;3.83;2.97;;;16.20;39.10;;;;;;6089090;23;20133;-81
2021/01/19 04:02:49;;;;;;;3.80;2.97;;;16.30;39.00;;;;;;6065685;23;20155;-80
2021/01/19 04:05:15;;;;;;;4.20;3.28;;;16.30;38.80;;;;;;6089551;23;20138;-80
2021/01/19 04:07:42;;;;;;;3.80;3.05;;;16.40;38.90;;;;;;6113578;23;20167;-81
2021/01/19 04:10:09;;;;;;;4.05;3.22;;;16.30;38.80;;;;;;6064988;23;20646;-81
2021/01/19 04:12:38;;;;;;;3.65;3.10;;;16.30;38.80;;;;;;6089939;23;20168;-80
2021/01/19 04:15:06;;;;;;;4.07;3.08;;;16.30;38.90;;;;;;6089178;23;20155;-81
2021/01/19 04:17:32;;;;;;;3.47;2.97;;;16.30;38.90;;;;;;6088881;23;20176;-81
2021/01/19 04:19:58;;;;;;;4.13;3.00;;;16.30;38.90;;;;;;6064356;23;20256;-81
2021/01/19 04:22:27;;;;;;;3.53;2.75;;;16.30;38.80;;;;;;6089364;23;20230;-81
2021/01/19 04:24:56;;;;;;;3.30;2.90;;;16.30;38.90;;;;;;6089733;23;20144;-81
2021/01/19 04:27:22;;;;;;;3.63;3.20;;;16.30;38.90;;;;;;6065857;23;20152;-81
2021/01/19 04:29:49;;;;;;;3.88;2.90;;;16.30;38.90;;;;;;6138736;23;20199;-81
2021/01/19 04:32:18;;;;;;;3.28;2.90;;;16.30;39.00;;;;;;6089071;23;20141;-81
2021/01/19 04:34:44;;;;;;;3.65;2.88;;;16.20;39.00;;;;;;6089810;23;20211;-83
2021/01/19 04:37:10;;;;;;;3.50;2.80;;;16.20;39.10;;;;;;6112883;23;20140;-81
2021/01/19 04:39:36;;;;;;;3.45;2.85;;;16.20;39.00;;;;;;6089477;23;20218;-81
2021/01/19 04:42:04;;;;;;;4.07;3.20;;;16.30;38.90;;;;;;6088855;23;20453;-81
2021/01/19 04:44:30;;;;;;;3.08;2.67;;;16.30;38.90;;;;;;6112837;23;20132;-81
2021/01/19 04:46:58;;;;;;;3.75;2.80;;;16.30;38.90;;;;;;6065255;23;20148;-81
2021/01/19 04:49:25;;;;;;;4.07;3.05;;;16.30;38.90;;;;;;6064675;23;20211;-81
2021/01/19 04:51:51;;;;;;;3.85;2.88;;;16.40;38.80;;;;;;6113280;23;20215;-81
2021/01/19 04:54:19;;;;;;;3.45;2.97;;;16.40;38.80;;;;;;6089305;23;20449;-82
2021/01/19 04:56:55;;;;;;;4.00;3.20;;;16.40;38.80;;;;;;6089392;23;20152;-82
2021/01/19 04:59:23;;;;;;;3.60;3.00;;;16.30;38.70;;;;;;6089850;23;20167;-81
2021/01/19 05:02:12;;;;;;;3.60;3.00;;;16.30;38.90;;;;;;6113112;23;20224;-81
2021/01/19 05:04:53;;;;;;;3.38;2.85;;;16.30;38.90;;;;;;6139808;23;20137;-81
2021/01/19 05:07:34;;;;;;;4.45;3.08;;;16.40;38.70;;;;;;6113591;23;20567;-81
2021/01/19 05:10:04;;;;;;;3.67;3.10;;;16.40;38.70;;;;;;6113573;23;20194;-82
2021/01/19 05:12:41;;;;;;;4.03;2.92;;;16.40;38.70;;;;;;6088683;23;20156;-81
2021/01/19 05:15:11;;;;;;;4.03;3.00;;;16.40;38.60;;;;;;6113934;23;20132;-81
2021/01/19 05:17:53;;;;;;;4.38;3.20;;;16.40;38.50;;;;;;6114555;23;20164;-81
2021/01/19 05:20:19;;;;;;;4.03;2.90;;;16.30;38.70;;;;;;6114513;23;20155;-82
2021/01/19 05:22:46;;;;;;;4.07;3.17;;;16.30;38.70;;;;;;6088909;23;20179;-82
2021/01/19 05:25:12;;;;;;;3.72;3.05;;;16.30;38.70;;;;;;6139749;23;20219;-81
2021/01/19 05:27:37;;;;;;;3.85;3.00;;;16.40;38.60;;;;;;6113608;23;20579;-81
2021/01/19 05:30:08;;;;;;;3.95;3.17;;;16.40;38.50;;;;;;6113833;23;20158;-81
2021/01/19 05:32:40;;;;;;;3.60;3.10;;;16.40;38.50;;;;;;6138202;23;20242;-81
2021/01/19 05:35:17;;;;;;;3.63;2.95;;;16.40;38.50;;;;;;6138666;23;20136;-81
2021/01/19 05:37:59;;;;;;;3.58;3.00;;;16.40;38.50;;;;;;6112157;23;20183;-81
2021/01/19 05:40:25;;;;;;;4.55;3.38;;;16.40;38.50;;;;;;6115678;23;20143;-81
2021/01/19 05:42:54;;;;;;;4.20;3.00;;;16.40;38.50;;;;;;6112272;23;20133;-81
2021/01/19 05:45:27;;;;;;;3.67;2.92;;;16.40;38.50;;;;;;6138970;23;20137;-81
2021/01/19 05:47:53;;;;;;;3.53;3.05;;;16.40;38.40;;;;;;6138055;23;20140;-81
2021/01/19 05:50:19;;;;;;;4.20;3.40;;;16.40;38.50;;;;;;6088888;23;20136;-81
2021/01/19 05:52:45;;;;;;;3.63;2.92;;;16.40;38.50;;;;;;6089277;23;20591;-82
2021/01/19 05:55:11;;;;;;;4.05;3.15;;;16.40;38.40;;;;;;6113116;23;20136;-81
2021/01/19 05:57:38;;;;;;;3.72;3.05;;;16.40;38.40;;;;;;6138398;23;20198;-81
2021/01/19 06:00:05;;;;;;;4.18;2.95;;;16.40;38.40;;;;;;6088044;23;20569;-81
2021/01/19 06:02:41;;;;;;;3.70;3.00;;;16.40;38.50;;;;;;6087849;23;20595;-81
2021/01/19 06:05:10;;;;;;;4.28;3.20;;;16.40;38.50;;;;;;6113002;23;20139;-81
2021/01/19 06:07:37;;;;;;;4.30;3.10;;;16.40;38.50;;;;;;6138750;23;20206;-82
2021/01/19 06:10:16;;;;;;;4.28;3.33;;;16.40;38.40;;;;;;6114788;23;20136;-81
2021/01/19 06:13:03;;;;;;;3.55;2.92;;;16.40;38.40;;;;;;6090559;23;20353;-81
2021/01/19 06:15:50;;;;;;;4.55;3.45;;;16.40;38.50;;;;;;6138504;23;20508;-81
2021/01/19 06:18:36;;;;;;;3.65;3.05;;;16.40;38.40;;;;;;6113003;23;20168;-81
2021/01/19 06:21:06;;;;;;;3.40;2.90;;;16.40;38.40;;;;;;6138517;23;20152;-81
2021/01/19 06:23:31;;;;;;;4.03;3.10;;;16.40;38.50;;;;;;6114306;23;20616;-81
2021/01/19 06:26:05;;;;;;;4.72;3.30;;;16.40;38.30;;;;;;6138401;23;20129;-81
2021/01/19 06:28:41;;;;;;;3.58;2.92;;;16.40;38.40;;;;;;6113589;23;20140;-81
2021/01/19 06:31:33;;;;;;;3.65;2.92;;;16.40;38.30;;;;;;6139350;23;20148;-81
2021/01/19 06:33:59;;;;;;;4.20;3.30;;;16.40;38.30;;;;;;6109289;23;20136;-81
2021/01/19 06:36:41;;;;;;;4.40;3.50;;;16.40;38.30;;;;;;6113300;23;20200;-81
2021/01/19 06:39:08;;;;;;;4.63;3.60;;;16.40;38.30;;;;;;6108533;23;20196;-81
2021/01/19 06:41:34;;;;;;;4.00;3.10;;;16.40;38.20;;;;;;6108763;23;20201;-81
2021/01/19 06:44:00;;;;;;;4.07;2.90;;;16.50;38.20;;;;;;6083087;23;20133;-80
2021/01/19 06:46:26;;;;;;;3.97;3.30;;;16.50;38.20;;;;;;6106683;23;20137;-81
2021/01/19 06:48:51;;;;;;;3.88;3.00;;;16.40;38.20;;;;;;6083714;23;20143;-81
2021/01/19 06:51:17;;;;;;;4.65;3.45;;;16.50;38.20;;;;;;6084395;23;20160;-80
2021/01/19 06:53:52;;;;;;;4.40;3.20;;;16.50;38.20;;;;;;6108343;23;20148;-80
2021/01/19 06:56:22;;;;;;;4.78;3.40;;;16.50;38.10;;;;;;6106916;23;20140;-80
2021/01/19 06:58:56;;;;;;;3.70;3.17;;;16.50;38.20;;;;;;6107832;23;20220;-81
2021/01/19 07:01:23;;;;;;;5.00;3.38;;;16.50;38.30;;;;;;6108358;23;20130;-80
2021/01/19 07:03:55;;;;;;;4.03;3.13;;;16.50;38.00;;;;;;6106831;23;20144;-81
2021/01/19 07:06:22;;;;;;;4.10;3.30;;;16.60;38.00;;;;;;6084472;23;20144;-80
2021/01/19 07:09:20;;;;;;;4.75;3.40;;;16.50;38.10;;;;;;6082779;23;20137;-80
2021/01/19 07:12:05;;;;;;;4.45;3.30;;;16.50;38.20;;;;;;6108703;23;20137;-80
2021/01/19 07:14:39;;;;;;;4.57;3.70;;;16.50;38.10;;;;;;6109282;23;20220;-81
2021/01/19 07:17:17;;;;;;;4.43;3.45;;;16.40;38.20;;;;;;6114270;23;20145;-80
2021/01/19 07:19:51;;;;;;;4.10;3.15;;;16.40;38.30;;;;;;6116760;23;20140;-82
2021/01/19 07:22:39;;;;;;;3.58;3.15;;;16.40;38.40;;;;;;6090296;23;20485;-80
2021/01/19 07:25:08;;;;;;;4.30;3.60;;;16.40;38.40;;;;;;6113867;23;20133;-81
2021/01/19 07:27:35;;;;;;;4.18;3.38;;;16.40;38.30;;;;;;6112228;23;20207;-81
2021/01/19 07:30:04;;;;;;;4.03;3.40;;;16.40;38.40;;;;;;6108915;23;20631;-81
2021/01/19 07:32:29;;;;;;;4.05;3.30;;;16.40;38.20;;;;;;6108537;23;20141;-81
2021/01/19 07:34:58;;;;;;;4.60;3.35;;;16.40;38.50;;;;;;6084028;23;20212;-81
2021/01/19 07:37:34;;;;;;;4.63;3.65;;;16.40;38.40;;;;;;6108614;23;20247;-81
2021/01/19 07:40:35;;;;;;;4.63;3.63;;;16.60;37.90;;;;;;6059741;23;20144;-81
2021/01/19 07:43:01;;;;;;;4.72;3.63;;;16.60;38.00;;;;;;6100387;23;20152;-81
2021/01/19 07:45:31;;;;;;;4.32;3.55;;;16.60;38.00;;;;;;6082080;23;20153;-81
2021/01/19 07:48:06;;;;;;;6.28;3.75;;;16.50;38.70;;;;;;6055644;23;20188;-81
2021/01/19 07:50:52;;;;;;;4.70;3.67;;;16.60;37.90;;;;;;6108467;23;20136;-82
2021/01/19 07:53:18;;;;;;;4.72;3.50;;;16.60;38.10;;;;;;6102902;23;20176;-81
2021/01/19 07:55:45;;;;;;;5.22;3.65;;;16.50;38.00;;;;;;6105749;23;20173;-81
2021/01/19 07:58:29;;;;;;;4.40;3.70;;;16.60;38.00;;;;;;6033857;23;20569;-81
2021/01/19 08:00:57;;;;;;;8.23;3.80;;;16.50;38.10;;;;;;6058354;23;20180;-81
2021/01/19 08:03:28;;;;;;;4.88;3.53;;;16.50;38.00;;;;;;6058643;23;20136;-81
2021/01/19 08:05:54;;;;;;;5.25;3.78;;;16.50;38.00;;;;;;6082303;23;20149;-81
2021/01/19 08:08:20;;;;;;;6.57;4.32;;;16.50;38.10;;;;;;6082869;23;20137;-81
2021/01/19 08:11:04;;;;;;;4.88;3.72;;;16.50;38.20;;;;;;6082967;23;20525;-82
2021/01/19 08:13:31;;;;;;;5.15;3.58;;;16.50;38.10;;;;;;6107450;23;20137;-81
2021/01/19 08:16:07;;;;;;;5.50;3.85;;;16.60;38.00;;;;;;6083333;23;20145;-81
2021/01/19 08:19:12;;;;;;;4.60;3.47;;;16.60;38.00;;;;;;6110839;23;20176;-80
2021/01/19 08:22:11;;;;;;;4.88;3.53;;;16.60;38.00;;;;;;6111848;23;20137;-81
2021/01/19 08:24:42;;;;;;;4.43;3.55;;;16.60;38.00;;;;;;6055765;23;20141;-80
2021/01/19 08:27:11;;;;;;;4.28;3.58;;;16.60;37.90;;;;;;6081178;23;20140;-79
2021/01/19 08:29:37;;;;;;;6.72;3.92;;;16.60;37.90;;;;;;6083055;23;20141;-80
2021/01/19 08:32:03;;;;;;;4.82;3.50;;;16.60;38.00;;;;;;6081566;23;20183;-80
2021/01/19 08:34:32;;;;;;;5.30;4.00;;;16.50;38.00;;;;;;6056801;23;20581;-80
2021/01/19 08:37:01;;;;;;;4.70;3.65;;;16.50;38.00;;;;;;6079253;23;20141;-80
2021/01/19 08:39:27;;;;;;;5.53;3.70;;;16.50;38.00;;;;;;6104689;23;20191;-80
2021/01/19 08:41:55;;;;;;;5.18;3.78;;;16.50;38.00;;;;;;6111194;23;20178;-80
2021/01/19 08:44:21;;;;;;;5.57;4.20;;;16.60;38.00;;;;;;6085331;23;20167;-79
2021/01/19 08:46:47;;;;;;;5.85;4.10;;;16.60;37.80;;;;;;6085821;23;20155;-81
2021/01/19 08:49:14;;;;;;;4.43;3.67;;;16.70;37.70;;;;;;6089013;23;20176;-80
2021/01/19 08:51:48;;;;;;;5.85;3.80;;;16.70;37.70;;;;;;6086648;23;20200;-80
2021/01/19 08:54:16;;;;;;;5.32;4.20;;;16.70;37.80;;;;;;6111624;23;20543;-81
2021/01/19 08:56:44;;;;;;;6.20;4.03;;;16.60;37.80;;;;;;6137655;23;20136;-81
2021/01/19 08:59:14;;;;;;;4.60;3.80;;;16.70;37.80;;;;;;6086355;23;20183;-81
2021/01/19 09:01:48;;;;;;;6.80;3.90;;;16.70;37.80;;;;;;6112536;23;20191;-81
2021/01/19 09:04:25;;;;;;;6.13;4.00;;;16.70;37.70;;;;;;6139034;23;20156;-81
2021/01/19 09:06:52;;;;;;;4.97;3.78;;;16.70;37.80;;;;;;6089985;23;20131;-81
2021/01/19 09:09:22;;;;;;;6.38;4.00;;;16.70;37.80;;;;;;6138391;23;20147;-80
2021/01/19 09:11:48;;;;;;;6.85;4.15;;;16.70;37.90;;;;;;6111594;23;20137;-80
2021/01/19 09:14:15;;;;;;;6.53;4.13;;;16.70;37.80;;;;;;6087347;23;20165;-81
2021/01/19 09:16:41;;;;;;;5.20;4.28;;;16.70;38.00;;;;;;6111561;23;20603;-80
2021/01/19 09:19:09;;;;;;;5.28;3.85;;;16.60;38.00;;;;;;6087850;23;20180;-80
2021/01/19 09:21:46;;;;;;;5.30;4.15;;;16.70;37.90;;;;;;6111641;23;20141;-81
2021/01/19 09:24:20;;;;;;;5.10;3.83;;;16.70;37.70;;;;;;6112252;23;20155;-80
2021/01/19 09:26:58;;;;;;;5.03;3.63;;;16.80;37.70;;;;;;6138071;23;20132;-80
2021/01/19 09:29:28;;;;;;;6.30;3.92;;;16.70;37.90;;;;;;6090253;23;20207;-81
2021/01/19 09:31:58;;;;;;;4.88;3.97;;;16.60;38.20;;;;;;6114213;23;20230;-81
2021/01/19 09:34:27;;;;;;;6.15;4.10;;;16.60;38.30;;;;;;6114217;23;20143;-81
2021/01/19 09:36:54;;;;;;;6.72;3.80;;;16.60;38.30;;;;;;6114098;23;20463;-81
2021/01/19 09:39:30;;;;;;;6.32;4.32;;;16.70;38.10;;;;;;6113064;23;20202;-81
2021/01/19 09:42:01;;;;;;;5.22;3.88;;;16.80;38.10;;;;;;6113833;23;20164;-81
2021/01/19 09:44:29;;;;;;;4.47;3.63;;;16.80;38.20;;;;;;6089811;23;20179;-81
2021/01/19 09:47:00;;;;;;;5.28;3.90;;;16.70;38.20;;;;;;6113577;23;20144;-80
2021/01/19 09:49:25;;;;;;;6.15;3.70;;;16.80;38.00;;;;;;6112835;23;20159;-81
2021/01/19 09:51:51;;;;;;;5.78;4.10;;;16.90;38.00;;;;;;6089374;23;20146;-82
2021/01/19 09:54:21;;;;;;;5.65;4.22;;;16.80;38.10;;;;;;6139122;23;20468;-81
2021/01/19 09:56:57;;;;;;;4.80;3.75;;;16.80;38.30;;;;;;6065196;23;20156;-81
2021/01/19 09:59:26;;;;;;;5.70;3.95;;;16.80;38.30;;;;;;6113927;23;20189;-81
2021/01/19 10:01:54;;;;;;;6.63;4.40;;;16.80;38.30;;;;;;6088262;23;20137;-81
2021/01/19 10:04:20;;;;;;;5.75;4.20;;;16.80;38.30;;;;;;6086755;23;20583;-81
2021/01/19 10:06:47;;;;;;;5.72;4.10;;;16.90;38.40;;;;;;6087249;23;20133;-81
2021/01/19 10:09:25;;;;;;;7.38;4.20;;;16.90;38.10;;;;;;6111970;23;20132;-82
2021/01/19 10:12:05;;;;;;;5.35;3.53;;;16.90;38.30;;;;;;6064909;23;20178;-81
2021/01/19 10:14:38;;;;;;;5.55;4.05;;;16.80;39.10;;;;;;6088761;23;20155;-82
2021/01/19 10:17:04;;;;;;;5.25;4.22;;;16.80;38.50;;;;;;6111857;23;20146;-82
2021/01/19 10:19:31;;;;;;;9.25;4.18;;;16.80;38.50;;;;;;6139039;23;20549;-81
2021/01/19 10:22:04;;;;;;;6.03;4.20;;;16.70;38.60;;;;;;6112527;23;20132;-82
2021/01/19 10:24:30;;;;;;;5.85;3.70;;;16.80;38.50;;;;;;6137925;23;20151;-80
2021/01/19 10:27:17;;;;;;;7.82;4.25;;;16.90;38.40;;;;;;6065168;23;20161;-82
2021/01/19 10:29:45;;;;;;;7.43;4.40;;;16.90;38.30;;;;;;6113055;23;20175;-80
2021/01/19 10:32:17;;;;;;;7.68;3.90;;;16.90;38.30;;;;;;6110599;23;20143;-80
2021/01/19 10:34:49;;;;;;;6.35;4.30;;;16.90;38.30;;;;;;6134993;23;20480;-82
2021/01/19 10:37:24;;;;;;;28.88;5.65;;;16.90;38.30;;;;;;6110928;23;20216;-80
2021/01/19 10:39:59;;;;;;;77.68;7.53;;;16.90;38.30;;;;;;6134847;23;20187;-81
2021/01/19 10:42:33;;;;;;;59.17;6.82;;;16.90;38.30;;;;;;6136160;23;20224;-81
2021/01/19 10:45:16;;;;;;;114.47;10.75;;;16.90;38.30;;;;;;6111054;23;20133;-81
2021/01/19 10:47:51;;;;;;;84.50;8.43;;;16.90;38.40;;;;;;6114080;23;20199;-80
2021/01/19 10:50:24;;;;;;;105.35;8.98;;;16.90;38.40;;;;;;6090592;23;20156;-83
2021/01/19 10:53:00;;;;;;;93.97;9.40;;;16.90;38.50;;;;;;6069043;23;20159;-82
2021/01/19 10:55:33;;;;;;;67.53;7.50;;;16.80;38.70;;;;;;6093559;23;20175;-82
2021/01/19 10:58:02;;;;;;;75.13;7.72;;;16.80;38.70;;;;;;6116112;23;20168;-82
2021/01/19 11:00:36;;;;;;;61.90;7.18;;;16.80;38.70;;;;;;6092573;23;20207;-82
2021/01/19 11:03:02;;;;;;;58.92;7.13;;;16.80;38.70;;;;;;6117153;23;20212;-82
2021/01/19 11:05:28;;;;;;;50.80;6.47;;;16.80;38.70;;;;;;6117438;23;20133;-82
2021/01/19 11:07:57;;;;;;;43.15;6.13;;;16.90;38.60;;;;;;6116264;23;20284;-82
2021/01/19 11:10:24;;;;;;;42.20;5.47;;;16.90;38.70;;;;;;6115972;23;20218;-81
2021/01/19 11:12:52;;;;;;;32.88;5.90;;;17.00;38.60;;;;;;6091100;23;20167;-82
2021/01/19 11:15:17;;;;;;;33.92;5.68;;;16.90;38.70;;;;;;6092062;23;20144;-83
2021/01/19 11:17:51;;;;;;;25.67;4.88;;;16.90;39.00;;;;;;6092754;23;20196;-81
2021/01/19 11:20:18;;;;;;;24.52;5.00;;;16.90;39.00;;;;;;6115259;23;20138;-82
2021/01/19 11:22:44;;;;;;;28.98;5.40;;;16.80;39.10;;;;;;6068701;23;20180;-81
2021/01/19 11:25:11;;;;;;;28.20;5.05;;;16.80;39.20;;;;;;6091522;23;20137;-81
2021/01/19 11:27:36;;;;;;;18.25;4.45;;;16.80;39.10;;;;;;6140260;23;20137;-81
2021/01/19 11:30:02;;;;;;;21.73;4.57;;;16.80;39.00;;;;;;6090000;23;20196;-81
2021/01/19 11:32:29;;;;;;;25.85;5.75;;;16.80;39.00;;;;;;6113449;23;20141;-81
2021/01/19 11:35:04;;;;;;;32.50;5.60;;;16.80;39.00;;;;;;6066812;23;20160;-82
2021/01/19 11:37:38;;;;;;;26.13;6.05;;;16.90;38.80;;;;;;6140499;23;20195;-81
2021/01/19 11:40:07;;;;;;;32.58;5.10;;;16.90;38.90;;;;;;6114360;23;20140;-81
2021/01/19 11:42:37;;;;;;;21.88;4.85;;;16.90;39.00;;;;;;6090256;23;20152;-81
2021/01/19 11:45:04;;;;;;;15.50;4.55;;;16.90;38.90;;;;;;6114635;23;20132;-81
2021/01/19 11:47:39;;;;;;;20.00;4.30;;;16.90;38.90;;;;;;6113603;23;20140;-82
2021/01/19 11:50:08;;;;;;;19.98;4.88;;;16.90;38.80;;;;;;6113932;23;20138;-81
2021/01/19 11:52:34;;;;;;;30.05;5.55;;;16.90;38.90;;;;;;6114314;23;20585;-81
2021/01/19 11:55:01;;;;;;;24.45;4.57;;;16.90;39.00;;;;;;6114205;23;20148;-82
2021/01/19 11:57:27;;;;;;;18.67;4.88;;;16.80;39.10;;;;;;6113521;23;20215;-81
2021/01/19 11:59:54;;;;;;;22.15;5.28;;;16.90;39.00;;;;;;6140587;23;20136;-82
2021/01/19 12:02:28;;;;;;;24.30;4.85;;;16.90;38.80;;;;;;6114383;23;20557;-81
2021/01/19 12:04:55;;;;;;;23.25;5.20;;;16.90;38.90;;;;;;6140032;23;20548;-82
2021/01/19 12:07:27;;;;;;;21.58;5.28;;;16.90;38.90;;;;;;6140174;23;20132;-81
2021/01/19 12:09:58;;;;;;;17.73;4.38;;;16.90;39.00;;;;;;6089194;23;20156;-81
2021/01/19 12:12:25;;;;;;;18.90;4.68;;;16.90;39.80;;;;;;6090606;23;20148;-81
2021/01/19 12:14:50;;;;;;;19.52;4.97;;;16.80;39.10;;;;;;6089324;23;20152;-81
2021/01/19 12:17:16;;;;;;;20.23;4.15;;;16.80;39.10;;;;;;6104899;23;20146;-81
2021/01/19 12:19:42;;;;;;;14.93;4.65;;;16.90;38.90;;;;;;6057049;23;20472;-80
2021/01/19 12:22:09;;;;;;;13.65;4.32;;;16.90;39.00;;;;;;6081602;23;20153;-81
2021/01/19 12:24:36;;;;;;;13.68;5.32;;;16.90;38.90;;;;;;6085198;23;20210;-82
2021/01/19 12:27:02;;;;;;;12.25;4.70;;;16.90;39.00;;;;;;6092211;23;20129;-82
2021/01/19 12:29:28;;;;;;;15.48;4.18;;;16.90;38.90;;;;;;6091533;23;20569;-82
2021/01/19 12:32:06;;;;;;;11.93;4.25;;;16.90;38.90;;;;;;6092266;23;20215;-82
2021/01/19 12:34:31;;;;;;;14.18;4.55;;;16.90;38.90;;;;;;6092564;23;20160;-82
2021/01/19 12:36:58;;;;;;;18.20;4.60;;;16.90;38.90;;;;;;6091330;23;20151;-82
2021/01/19 12:39:27;;;;;;;11.88;4.00;;;16.90;39.00;;;;;;6086882;23;20283;-82
2021/01/19 12:41:57;;;;;;;17.35;4.45;;;16.90;39.00;;;;;;6086820;23;20209;-81
2021/01/19 12:44:32;;;;;;;13.73;4.75;;;16.90;39.00;;;;;;6112424;23;20133;-82
2021/01/19 12:47:01;;;;;;;16.67;4.30;;;16.80;39.00;;;;;;6109825;23;20128;-80
2021/01/19 12:49:30;;;;;;;14.13;4.22;;;16.90;39.10;;;;;;6064194;23;20155;-81
2021/01/19 12:51:57;;;;;;;11.52;4.05;;;16.90;39.00;;;;;;6086836;23;20168;-80
2021/01/19 12:54:23;;;;;;;14.43;3.90;;;16.90;39.10;;;;;;6109291;23;20537;-80
2021/01/19 12:56:57;;;;;;;13.38;4.10;;;16.80;39.10;;;;;;6109593;23;20148;-80
2021/01/19 12:59:25;;;;;;;9.95;3.85;;;16.80;39.20;;;;;;6108443;23;20172;-80
2021/01/19 13:01:52;;;;;;;10.40;4.40;;;16.80;39.00;;;;;;6110833;23;20181;-81